createdAt,value
2023-04-30T00:00:30.845Z,86.46
2023-04-30T00:01:30.838Z,86.57
2023-04-30T00:02:30.907Z,86.57
2023-04-30T00:03:30.968Z,86.57
2023-04-30T00:04:30.797Z,86.66
2023-04-30T00:05:30.828Z,86.66
2023-04-30T00:06:30.807Z,86.66
2023-04-30T00:07:31.576Z,86.66
2023-04-30T00:08:30.753Z,86.66
2023-04-30T00:09:30.746Z,86.66
2023-04-30T00:10:30.782Z,86.77
2023-04-30T00:11:30.724Z,86.77
2023-04-30T00:12:30.711Z,86.77
2023-04-30T00:13:30.731Z,86.77
2023-04-30T00:14:30.694Z,86.87
2023-04-30T00:15:30.699Z,86.87
2023-04-30T00:16:30.696Z,86.87
2023-04-30T00:17:30.746Z,86.98
2023-04-30T00:18:30.657Z,87.02
2023-04-30T00:19:30.647Z,87.22
2023-04-30T00:20:30.637Z,87.32
2023-04-30T00:21:30.632Z,87.43
2023-04-30T00:22:30.637Z,87.43
2023-04-30T00:23:30.614Z,87.53
2023-04-30T00:24:30.571Z,87.53
2023-04-30T00:25:30.593Z,87.53
2023-04-30T00:26:30.555Z,87.53
2023-04-30T00:27:30.556Z,87.53
2023-04-30T00:28:30.533Z,87.63
2023-04-30T00:29:30.556Z,87.63
2023-04-30T00:30:30.527Z,87.73
2023-04-30T00:31:30.519Z,87.73
2023-04-30T00:32:30.495Z,87.73
2023-04-30T00:33:30.467Z,87.73
2023-04-30T00:34:30.503Z,87.73
2023-04-30T00:35:30.453Z,87.73
2023-04-30T00:36:30.444Z,87.73
2023-04-30T00:37:30.436Z,87.73
2023-04-30T00:38:30.443Z,87.73
2023-04-30T00:39:30.404Z,87.84
2023-04-30T00:40:30.410Z,87.94
2023-04-30T00:41:30.381Z,87.94
2023-04-30T00:42:30.433Z,87.94
2023-04-30T00:43:31.160Z,88.04
2023-04-30T00:44:30.362Z,88.04
2023-04-30T00:45:30.343Z,88.04
2023-04-30T00:46:30.348Z,88.04
2023-04-30T00:47:30.376Z,88.04
2023-04-30T00:48:30.316Z,88.04
2023-04-30T00:49:30.300Z,88.04
2023-04-30T00:50:30.300Z,88.04
2023-04-30T00:51:30.267Z,87.94
2023-04-30T00:52:30.269Z,87.94
2023-04-30T00:53:30.237Z,87.94
2023-04-30T00:54:30.247Z,87.94
2023-04-30T00:55:30.248Z,87.94
2023-04-30T00:56:30.220Z,87.94
2023-04-30T00:57:30.210Z,87.94
2023-04-30T00:58:30.224Z,87.94
2023-04-30T00:59:30.211Z,87.84
2023-04-30T01:00:30.184Z,87.84
2023-04-30T01:01:30.221Z,87.73
2023-04-30T01:02:30.220Z,87.73
2023-04-30T01:03:30.269Z,87.73
2023-04-30T01:04:30.155Z,87.63
2023-04-30T01:05:30.117Z,87.63
2023-04-30T01:06:30.152Z,87.63
2023-04-30T01:07:30.082Z,87.53
2023-04-30T01:08:30.074Z,87.53
2023-04-30T01:09:30.064Z,87.53
2023-04-30T01:10:30.094Z,87.53
2023-04-30T01:11:30.034Z,87.53
2023-04-30T01:12:30.040Z,87.53
2023-04-30T01:13:30.086Z,87.53
2023-04-30T01:14:31.009Z,87.53
2023-04-30T01:15:30.960Z,87.53
2023-04-30T01:16:30.050Z,87.63
2023-04-30T01:17:29.974Z,87.63
2023-04-30T01:18:30.132Z,87.63
2023-04-30T01:19:30.002Z,87.73
2023-04-30T01:20:29.961Z,87.73
2023-04-30T01:21:29.941Z,87.73
2023-04-30T01:22:29.914Z,87.84
2023-04-30T01:23:29.900Z,87.84
2023-04-30T01:24:29.904Z,87.84
2023-04-30T01:25:29.906Z,87.94
2023-04-30T01:26:29.889Z,87.94
2023-04-30T01:27:29.860Z,87.84
2023-04-30T01:28:29.870Z,87.84
2023-04-30T01:29:29.865Z,87.84
2023-04-30T01:30:29.822Z,87.84
2023-04-30T01:31:29.935Z,87.88
2023-04-30T01:32:29.886Z,87.88
2023-04-30T01:33:29.799Z,87.88
2023-04-30T01:34:29.791Z,87.98
2023-04-30T01:35:29.816Z,87.98
2023-04-30T01:36:30.742Z,87.98
2023-04-30T01:37:29.771Z,87.98
2023-04-30T01:38:29.753Z,87.98
2023-04-30T01:39:29.782Z,87.98
2023-04-30T01:40:29.744Z,87.98
2023-04-30T01:41:29.741Z,87.98
2023-04-30T01:42:29.966Z,88.08
2023-04-30T01:43:29.676Z,88.08
2023-04-30T01:44:29.720Z,88.08
2023-04-30T01:45:29.671Z,88.18
2023-04-30T01:46:29.705Z,88.18
2023-04-30T01:47:29.678Z,88.29
2023-04-30T01:48:29.720Z,88.39
2023-04-30T01:49:29.633Z,88.39
2023-04-30T01:50:30.447Z,88.39
2023-04-30T01:51:29.608Z,88.39
2023-04-30T01:52:29.601Z,88.39
2023-04-30T01:53:29.583Z,88.39
2023-04-30T01:54:29.582Z,88.49
2023-04-30T01:55:29.605Z,88.49
2023-04-30T01:56:29.582Z,88.53
2023-04-30T01:57:29.536Z,88.53
2023-04-30T01:58:30.318Z,88.53
2023-04-30T01:59:29.527Z,88.53
2023-04-30T02:00:29.553Z,88.64
2023-04-30T02:01:29.576Z,88.64
2023-04-30T02:02:29.535Z,88.74
2023-04-30T02:03:29.609Z,88.84
2023-04-30T02:04:29.478Z,88.95
2023-04-30T02:05:29.451Z,88.95
2023-04-30T02:06:29.517Z,89.09
2023-04-30T02:07:29.464Z,89.19
2023-04-30T02:08:29.447Z,89.29
2023-04-30T02:09:29.400Z,89.40
2023-04-30T02:10:29.424Z,89.40
2023-04-30T02:11:29.380Z,89.50
2023-04-30T02:12:29.426Z,89.60
2023-04-30T02:13:29.382Z,89.70
2023-04-30T02:14:29.357Z,89.81
2023-04-30T02:15:29.385Z,89.91
2023-04-30T02:16:30.384Z,89.95
2023-04-30T02:17:29.336Z,90.06
2023-04-30T02:18:29.712Z,90.16
2023-04-30T02:19:29.312Z,90.26
2023-04-30T02:20:30.241Z,90.26
2023-04-30T02:21:30.795Z,90.36
2023-04-30T02:22:29.260Z,90.47
2023-04-30T02:23:29.269Z,90.47
2023-04-30T02:24:29.270Z,90.57
2023-04-30T02:25:29.232Z,90.67
2023-04-30T02:26:30.682Z,90.67
2023-04-30T02:27:29.197Z,90.67
2023-04-30T02:28:29.194Z,90.67
2023-04-30T02:29:29.206Z,90.67
2023-04-30T02:30:29.180Z,90.67
2023-04-30T02:31:29.192Z,90.78
2023-04-30T02:32:29.183Z,90.88
2023-04-30T02:33:29.124Z,90.78
2023-04-30T02:34:29.156Z,90.88
2023-04-30T02:35:29.109Z,90.88
2023-04-30T02:36:30.140Z,90.88
2023-04-30T02:37:29.097Z,91.02
2023-04-30T02:38:29.085Z,91.02
2023-04-30T02:39:29.068Z,91.02
2023-04-30T02:40:29.077Z,91.13
2023-04-30T02:41:29.052Z,91.23
2023-04-30T02:42:29.065Z,91.33
2023-04-30T02:43:29.023Z,91.44
2023-04-30T02:44:29.024Z,91.44
2023-04-30T02:45:29.020Z,91.53
2023-04-30T02:46:29.213Z,91.64
2023-04-30T02:47:29.078Z,91.64
2023-04-30T02:48:28.980Z,91.74
2023-04-30T02:49:29.140Z,91.85
2023-04-30T02:50:32.762Z,91.95
2023-04-30T02:51:28.940Z,91.99
2023-04-30T02:52:30.424Z,91.99
2023-04-30T02:53:28.910Z,91.99
2023-04-30T02:54:28.943Z,92.10
2023-04-30T02:55:28.908Z,92.20
2023-04-30T02:56:28.902Z,92.20
2023-04-30T02:57:29.669Z,92.30
2023-04-30T02:58:28.932Z,92.40
2023-04-30T02:59:28.901Z,92.40
2023-04-30T03:00:28.850Z,92.50
2023-04-30T03:01:28.855Z,92.50
2023-04-30T03:02:28.871Z,92.50
2023-04-30T03:03:28.881Z,92.61
2023-04-30T03:04:28.829Z,92.61
2023-04-30T03:05:28.830Z,92.61
2023-04-30T03:06:28.853Z,92.50
2023-04-30T03:07:28.764Z,92.50
2023-04-30T03:08:28.905Z,92.50
2023-04-30T03:09:28.752Z,92.50
2023-04-30T03:10:28.945Z,92.50
2023-04-30T03:11:28.761Z,92.50
2023-04-30T03:12:28.714Z,92.50
2023-04-30T03:13:28.755Z,92.50
2023-04-30T03:14:28.698Z,92.50
2023-04-30T03:15:28.686Z,92.50
2023-04-30T03:16:29.665Z,92.61
2023-04-30T03:17:29.505Z,92.61
2023-04-30T03:18:28.679Z,92.65
2023-04-30T03:19:29.271Z,92.76
2023-04-30T03:20:28.651Z,92.76
2023-04-30T03:21:28.613Z,92.86
2023-04-30T03:22:29.566Z,92.86
2023-04-30T03:23:28.713Z,92.96
2023-04-30T03:24:28.625Z,92.96
2023-04-30T03:25:29.592Z,92.96
2023-04-30T03:26:28.737Z,92.96
2023-04-30T03:27:28.793Z,93.06
2023-04-30T03:28:28.559Z,93.06
2023-04-30T03:29:28.585Z,93.06
2023-04-30T03:30:28.546Z,93.06
2023-04-30T03:31:28.598Z,93.06
2023-04-30T03:32:28.521Z,93.06
2023-04-30T03:33:29.976Z,93.16
2023-04-30T03:34:28.473Z,93.16
2023-04-30T03:35:28.496Z,93.06
2023-04-30T03:36:28.475Z,93.06
2023-04-30T03:37:28.493Z,93.11
2023-04-30T03:38:28.464Z,93.21
2023-04-30T03:39:28.435Z,93.21
2023-04-30T03:40:28.555Z,93.31
2023-04-30T03:41:28.758Z,93.41
2023-04-30T03:42:28.381Z,93.52
2023-04-30T03:43:28.399Z,93.62
2023-04-30T03:44:28.366Z,93.73
2023-04-30T03:45:28.524Z,93.83
2023-04-30T03:46:28.396Z,93.93
2023-04-30T03:47:29.863Z,94.03
2023-04-30T03:48:28.332Z,94.13
2023-04-30T03:49:28.344Z,94.13
2023-04-30T03:50:28.357Z,94.09
2023-04-30T03:51:28.281Z,94.20
2023-04-30T03:52:28.289Z,94.20
2023-04-30T03:53:28.264Z,94.20
2023-04-30T03:54:28.258Z,94.30
2023-04-30T03:55:28.254Z,94.30
2023-04-30T03:56:28.269Z,94.30
2023-04-30T03:57:28.339Z,94.30
2023-04-30T03:58:28.314Z,94.30
2023-04-30T03:59:28.363Z,94.30
2023-04-30T04:00:28.198Z,94.30
2023-04-30T04:01:28.163Z,94.30
2023-04-30T04:02:28.192Z,94.30
2023-04-30T04:03:28.156Z,94.20
2023-04-30T04:04:29.746Z,94.20
2023-04-30T04:05:28.146Z,94.20
2023-04-30T04:06:28.187Z,94.09
2023-04-30T04:07:28.113Z,93.99
2023-04-30T04:08:28.114Z,93.99
2023-04-30T04:09:28.125Z,93.99
2023-04-30T04:10:28.073Z,93.88
2023-04-30T04:11:28.066Z,93.88
2023-04-30T04:12:28.150Z,93.88
2023-04-30T04:13:28.088Z,93.79
2023-04-30T04:14:28.039Z,93.68
2023-04-30T04:15:28.044Z,93.73
2023-04-30T04:16:28.082Z,93.73
2023-04-30T04:17:28.116Z,93.83
2023-04-30T04:18:28.857Z,93.83
2023-04-30T04:19:27.970Z,93.83
2023-04-30T04:20:27.993Z,93.83
2023-04-30T04:21:28.388Z,93.93
2023-04-30T04:22:27.990Z,93.93
2023-04-30T04:23:28.315Z,93.98
2023-04-30T04:24:27.938Z,93.98
2023-04-30T04:25:27.949Z,93.98
2023-04-30T04:26:27.938Z,94.08
2023-04-30T04:27:27.903Z,94.08
2023-04-30T04:28:27.877Z,94.08
2023-04-30T04:29:27.883Z,94.18
2023-04-30T04:30:27.872Z,94.18
2023-04-30T04:31:27.863Z,94.18
2023-04-30T04:32:27.845Z,94.28
2023-04-30T04:33:27.923Z,94.28
2023-04-30T04:34:27.823Z,94.38
2023-04-30T04:35:27.817Z,94.49
2023-04-30T04:36:27.878Z,94.59
2023-04-30T04:37:28.602Z,94.59
2023-04-30T04:38:28.038Z,94.59
2023-04-30T04:39:27.898Z,94.70
2023-04-30T04:40:29.838Z,94.70
2023-04-30T04:41:29.206Z,94.80
2023-04-30T04:42:27.794Z,94.80
2023-04-30T04:43:27.782Z,94.80
2023-04-30T04:44:27.706Z,94.90
2023-04-30T04:45:27.912Z,94.90
2023-04-30T04:46:28.738Z,94.90
2023-04-30T04:47:29.195Z,94.96
2023-04-30T04:48:28.008Z,94.96
2023-04-30T04:49:27.678Z,95.06
2023-04-30T04:50:27.633Z,95.06
2023-04-30T04:51:27.671Z,95.06
2023-04-30T04:52:27.659Z,94.96
2023-04-30T04:53:27.606Z,94.96
2023-04-30T04:54:27.600Z,95.06
2023-04-30T04:55:27.580Z,95.02
2023-04-30T04:56:27.864Z,94.92
2023-04-30T04:57:27.931Z,94.92
2023-04-30T04:58:28.992Z,94.92
2023-04-30T04:59:27.535Z,94.81
2023-04-30T05:00:27.514Z,94.81
2023-04-30T05:01:27.583Z,94.81
2023-04-30T05:02:28.549Z,94.81
2023-04-30T05:03:27.767Z,94.67
2023-04-30T05:04:27.476Z,94.67
2023-04-30T05:05:27.469Z,94.56
2023-04-30T05:06:27.513Z,94.46
2023-04-30T05:07:27.471Z,94.46
2023-04-30T05:08:27.511Z,94.36
2023-04-30T05:09:27.530Z,94.26
2023-04-30T05:10:27.417Z,94.15
2023-04-30T05:11:28.357Z,94.11
2023-04-30T05:12:27.518Z,94.01
2023-04-30T05:13:27.380Z,93.90
2023-04-30T05:14:28.208Z,93.80
2023-04-30T05:15:27.352Z,93.80
2023-04-30T05:16:27.364Z,93.70
2023-04-30T05:17:28.897Z,93.59
2023-04-30T05:18:27.344Z,93.49
2023-04-30T05:19:28.120Z,93.39
2023-04-30T05:20:27.294Z,93.35
2023-04-30T05:21:27.347Z,93.24
2023-04-30T05:22:27.317Z,93.14
2023-04-30T05:23:27.282Z,93.04
2023-04-30T05:24:27.257Z,92.93
2023-04-30T05:25:27.283Z,92.83
2023-04-30T05:26:27.234Z,92.73
2023-04-30T05:27:27.241Z,92.63
2023-04-30T05:28:27.552Z,92.52
2023-04-30T05:29:27.224Z,92.42
2023-04-30T05:30:27.211Z,92.27
2023-04-30T05:31:27.196Z,92.27
2023-04-30T05:32:27.179Z,92.17
2023-04-30T05:33:27.195Z,92.07
2023-04-30T05:34:27.152Z,92.07
2023-04-30T05:35:27.156Z,91.97
2023-04-30T05:36:27.128Z,91.86
2023-04-30T05:37:27.121Z,91.86
2023-04-30T05:38:27.303Z,91.76
2023-04-30T05:39:27.084Z,91.61
2023-04-30T05:40:27.306Z,91.51
2023-04-30T05:41:27.065Z,91.41
2023-04-30T05:42:27.062Z,91.20
2023-04-30T05:43:27.036Z,91.20
2023-04-30T05:44:27.888Z,91.00
2023-04-30T05:45:27.591Z,90.89
2023-04-30T05:46:28.544Z,90.80
2023-04-30T05:47:27.014Z,90.69
2023-04-30T05:48:27.197Z,90.55
2023-04-30T05:49:26.983Z,90.55
2023-04-30T05:50:26.985Z,90.44
2023-04-30T05:51:27.004Z,90.24
2023-04-30T05:52:27.031Z,90.24
2023-04-30T05:53:28.962Z,90.14
2023-04-30T05:54:26.961Z,90.14
2023-04-30T05:55:26.924Z,90.03
2023-04-30T05:56:26.926Z,89.93
2023-04-30T05:57:26.915Z,89.83
2023-04-30T05:58:26.957Z,89.72
2023-04-30T05:59:26.904Z,89.62
2023-04-30T06:00:26.920Z,89.58
2023-04-30T06:01:26.869Z,89.48
2023-04-30T06:02:27.121Z,89.37
2023-04-30T06:03:26.841Z,89.48
2023-04-30T06:04:26.842Z,89.37
2023-04-30T06:05:26.942Z,89.37
2023-04-30T06:06:26.824Z,89.27
2023-04-30T06:07:26.804Z,89.13
2023-04-30T06:08:27.646Z,89.03
2023-04-30T06:09:26.759Z,88.92
2023-04-30T06:10:26.760Z,88.82
2023-04-30T06:11:26.745Z,88.72
2023-04-30T06:12:26.741Z,88.62
2023-04-30T06:13:26.708Z,88.41
2023-04-30T06:14:26.760Z,88.31
2023-04-30T06:15:27.055Z,88.21
2023-04-30T06:16:26.723Z,88.17
2023-04-30T06:17:28.205Z,88.06
2023-04-30T06:18:28.126Z,87.96
2023-04-30T06:19:26.793Z,87.76
2023-04-30T06:20:27.665Z,87.65
2023-04-30T06:21:26.624Z,87.51
2023-04-30T06:22:26.802Z,87.41
2023-04-30T06:23:26.619Z,87.20
2023-04-30T06:24:28.087Z,87.10
2023-04-30T06:25:26.917Z,86.90
2023-04-30T06:26:27.245Z,86.58
2023-04-30T06:27:26.948Z,86.38
2023-04-30T06:28:26.733Z,86.18
2023-04-30T06:29:28.034Z,86.07
2023-04-30T06:30:26.607Z,86.04
2023-04-30T06:31:26.732Z,85.93
2023-04-30T06:32:26.529Z,85.83
2023-04-30T06:33:27.461Z,85.72
2023-04-30T06:34:27.022Z,85.63
2023-04-30T06:35:26.464Z,85.63
2023-04-30T06:36:26.471Z,85.52
2023-04-30T06:37:26.472Z,85.42
2023-04-30T06:38:27.903Z,85.31
2023-04-30T06:39:26.504Z,85.22
2023-04-30T06:40:26.593Z,85.22
2023-04-30T06:41:26.513Z,85.11
2023-04-30T06:42:27.251Z,85.01
2023-04-30T06:43:26.423Z,84.91
2023-04-30T06:44:26.365Z,84.91
2023-04-30T06:45:27.818Z,84.66
2023-04-30T06:46:26.950Z,84.66
2023-04-30T06:47:26.550Z,84.77
2023-04-30T06:48:27.156Z,84.66
2023-04-30T06:49:27.276Z,84.66
2023-04-30T06:50:26.495Z,84.66
2023-04-30T06:51:26.277Z,84.66
2023-04-30T06:52:26.290Z,84.56
2023-04-30T06:53:27.076Z,84.42
2023-04-30T06:54:26.268Z,84.22
2023-04-30T06:55:26.250Z,84.01
2023-04-30T06:56:27.703Z,84.01
2023-04-30T06:57:26.247Z,84.11
2023-04-30T06:58:26.244Z,84.22
2023-04-30T06:59:26.232Z,84.22
2023-04-30T07:00:27.720Z,84.22
2023-04-30T07:01:28.205Z,84.11
2023-04-30T07:02:26.242Z,83.97
2023-04-30T07:03:27.123Z,83.97
2023-04-30T07:04:26.184Z,83.76
2023-04-30T07:05:26.156Z,83.76
2023-04-30T07:06:26.234Z,83.66
2023-04-30T07:07:26.253Z,83.56
2023-04-30T07:08:26.109Z,83.56
2023-04-30T07:09:26.117Z,83.56
2023-04-30T07:10:26.159Z,83.52
2023-04-30T07:11:26.093Z,83.42
2023-04-30T07:12:26.099Z,83.32
2023-04-30T07:13:26.093Z,82.91
2023-04-30T07:14:26.034Z,82.60
2023-04-30T07:15:26.033Z,82.26
2023-04-30T07:16:26.093Z,82.15
2023-04-30T07:17:27.597Z,82.05
2023-04-30T07:18:25.995Z,81.95
2023-04-30T07:19:26.027Z,81.85
2023-04-30T07:20:26.938Z,81.74
2023-04-30T07:21:26.117Z,81.65
2023-04-30T07:22:25.957Z,81.44
2023-04-30T07:23:26.869Z,81.34
2023-04-30T07:24:25.920Z,81.30
2023-04-30T07:25:25.944Z,81.30
2023-04-30T07:26:27.388Z,81.20
2023-04-30T07:27:25.928Z,81.10
2023-04-30T07:28:25.896Z,81.10
2023-04-30T07:29:25.933Z,81.10
2023-04-30T07:30:26.348Z,80.99
2023-04-30T07:31:25.877Z,80.89
2023-04-30T07:32:26.059Z,80.69
2023-04-30T07:33:25.850Z,80.58
2023-04-30T07:34:26.087Z,80.44
2023-04-30T07:35:25.803Z,80.44
2023-04-30T07:36:25.824Z,80.44
2023-04-30T07:37:27.246Z,80.55
2023-04-30T07:38:27.234Z,80.34
2023-04-30T07:39:25.756Z,80.14
2023-04-30T07:40:35.472Z,80.10
2023-04-30T07:41:26.755Z,80.00
2023-04-30T07:42:25.735Z,79.80
2023-04-30T07:43:25.789Z,79.59
2023-04-30T07:44:25.764Z,79.39
2023-04-30T07:45:25.734Z,79.28
2023-04-30T07:46:25.727Z,79.18
2023-04-30T07:47:25.801Z,79.08
2023-04-30T07:48:26.052Z,79.04
2023-04-30T07:49:25.915Z,78.84
2023-04-30T07:50:25.645Z,78.74
2023-04-30T07:51:25.668Z,78.64
2023-04-30T07:52:25.608Z,78.53
2023-04-30T07:53:25.690Z,78.43
2023-04-30T07:54:25.618Z,78.30
2023-04-30T07:55:25.597Z,78.19
2023-04-30T07:56:25.585Z,77.98
2023-04-30T07:57:26.622Z,78.09
2023-04-30T07:58:27.016Z,78.09
2023-04-30T07:59:25.566Z,77.95
2023-04-30T08:00:26.074Z,77.75
2023-04-30T08:01:25.516Z,77.64
2023-04-30T08:02:26.082Z,77.24
2023-04-30T08:03:25.573Z,77.00
2023-04-30T08:04:25.512Z,76.69
2023-04-30T08:05:25.509Z,76.39
2023-04-30T08:06:25.584Z,76.18
2023-04-30T08:07:25.529Z,76.18
2023-04-30T08:08:25.513Z,76.18
2023-04-30T08:09:25.790Z,75.67
2023-04-30T08:10:25.453Z,75.57
2023-04-30T08:11:25.424Z,75.67
2023-04-30T08:12:25.478Z,75.78
2023-04-30T08:13:25.396Z,75.95
2023-04-30T08:14:25.399Z,75.84
2023-04-30T08:15:25.403Z,75.33
2023-04-30T08:16:25.387Z,75.33
2023-04-30T08:17:25.905Z,75.54
2023-04-30T08:18:25.345Z,75.54
2023-04-30T08:19:25.358Z,75.13
2023-04-30T08:20:25.531Z,75.02
2023-04-30T08:21:25.296Z,74.93
2023-04-30T08:22:25.313Z,75.13
2023-04-30T08:23:26.819Z,75.02
2023-04-30T08:24:26.706Z,74.99
2023-04-30T08:25:26.749Z,74.99
2023-04-30T08:26:25.242Z,74.99
2023-04-30T08:27:25.272Z,74.69
2023-04-30T08:28:26.683Z,74.58
2023-04-30T08:29:26.674Z,74.48
2023-04-30T08:30:25.272Z,74.58
2023-04-30T08:31:25.253Z,74.45
2023-04-30T08:32:25.253Z,74.65
2023-04-30T08:33:25.240Z,74.55
2023-04-30T08:34:25.134Z,74.76
2023-04-30T08:35:25.148Z,74.76
2023-04-30T08:36:25.182Z,74.31
2023-04-30T08:37:25.143Z,73.80
2023-04-30T08:38:27.586Z,73.50
2023-04-30T08:39:25.112Z,73.70
2023-04-30T08:40:43.417Z,73.80
2023-04-30T08:41:26.063Z,73.91
2023-04-30T08:42:25.072Z,73.30
2023-04-30T08:43:25.071Z,73.30
2023-04-30T08:44:25.056Z,73.50
2023-04-30T08:45:25.058Z,73.50
2023-04-30T08:46:25.109Z,73.67
2023-04-30T08:47:25.013Z,73.87
2023-04-30T08:48:25.027Z,73.67
2023-04-30T08:49:25.130Z,73.06
2023-04-30T08:50:25.034Z,72.62
2023-04-30T08:51:24.972Z,72.21
2023-04-30T08:52:24.964Z,71.80
2023-04-30T08:53:24.962Z,71.70
2023-04-30T08:54:24.934Z,71.60
2023-04-30T08:55:25.098Z,71.60
2023-04-30T08:56:25.529Z,71.57
2023-04-30T08:57:24.907Z,71.67
2023-04-30T08:58:24.925Z,71.57
2023-04-30T08:59:25.080Z,71.77
2023-04-30T09:00:24.860Z,71.97
2023-04-30T09:01:24.915Z,71.94
2023-04-30T09:02:24.919Z,71.84
2023-04-30T09:03:24.997Z,71.44
2023-04-30T09:04:24.859Z,71.03
2023-04-30T09:05:24.800Z,70.62
2023-04-30T09:06:24.863Z,70.69
2023-04-30T09:07:24.793Z,70.59
2023-04-30T09:08:25.181Z,70.08
2023-04-30T09:09:24.752Z,69.88
2023-04-30T09:10:24.829Z,69.78
2023-04-30T09:11:24.770Z,69.88
2023-04-30T09:12:24.815Z,69.95
2023-04-30T09:13:25.558Z,69.84
2023-04-30T09:14:24.713Z,69.74
2023-04-30T09:15:24.703Z,69.24
2023-04-30T09:16:25.318Z,69.03
2023-04-30T09:17:24.880Z,68.63
2023-04-30T09:18:24.683Z,68.49
2023-04-30T09:19:24.701Z,68.09
2023-04-30T09:20:24.659Z,67.89
2023-04-30T09:21:24.623Z,67.79
2023-04-30T09:22:24.612Z,67.79
2023-04-30T09:23:24.679Z,67.58
2023-04-30T09:24:24.663Z,67.65
2023-04-30T09:25:25.639Z,67.55
2023-04-30T09:26:24.585Z,67.45
2023-04-30T09:27:25.118Z,67.25
2023-04-30T09:28:24.548Z,67.05
2023-04-30T09:29:24.529Z,66.54
2023-04-30T09:30:24.836Z,66.13
2023-04-30T09:31:24.684Z,66.20
2023-04-30T09:32:24.542Z,66.41
2023-04-30T09:33:24.485Z,66.30
2023-04-30T09:34:24.495Z,66.00
2023-04-30T09:35:24.473Z,65.70
2023-04-30T09:36:24.482Z,65.59
2023-04-30T09:37:24.496Z,66.00
2023-04-30T09:38:24.467Z,66.47
2023-04-30T09:39:24.450Z,66.78
2023-04-30T09:40:24.426Z,67.29
2023-04-30T09:41:24.402Z,67.05
2023-04-30T09:42:24.404Z,66.44
2023-04-30T09:43:25.887Z,66.44
2023-04-30T09:44:24.381Z,66.24
2023-04-30T09:45:24.378Z,65.73
2023-04-30T09:46:24.408Z,65.13
2023-04-30T09:47:24.454Z,65.03
2023-04-30T09:48:24.422Z,64.90
2023-04-30T09:49:24.321Z,64.39
2023-04-30T09:50:24.352Z,63.89
2023-04-30T09:51:25.278Z,63.08
2023-04-30T09:52:24.283Z,62.87
2023-04-30T09:53:24.350Z,63.08
2023-04-30T09:54:24.276Z,63.38
2023-04-30T09:55:24.255Z,63.38
2023-04-30T09:56:25.132Z,63.28
2023-04-30T09:57:24.387Z,63.18
2023-04-30T09:58:24.364Z,62.98
2023-04-30T09:59:24.205Z,62.98
2023-04-30T10:00:24.202Z,63.08
2023-04-30T10:01:24.227Z,62.87
2023-04-30T10:02:24.886Z,62.57
2023-04-30T10:03:25.138Z,62.98
2023-04-30T10:04:25.289Z,63.78
2023-04-30T10:05:24.181Z,64.76
2023-04-30T10:06:24.264Z,65.27
2023-04-30T10:07:25.092Z,64.76
2023-04-30T10:08:25.147Z,64.76
2023-04-30T10:09:24.098Z,65.04
2023-04-30T10:10:24.187Z,63.62
2023-04-30T10:11:24.078Z,63.93
2023-04-30T10:12:24.255Z,63.32
2023-04-30T10:13:24.072Z,62.51
2023-04-30T10:14:25.196Z,63.12
2023-04-30T10:15:24.048Z,64.03
2023-04-30T10:16:25.504Z,64.61
2023-04-30T10:17:24.883Z,63.19
2023-04-30T10:18:24.036Z,62.28
2023-04-30T10:19:25.161Z,61.88
2023-04-30T10:20:23.989Z,62.79
2023-04-30T10:21:24.134Z,63.26
2023-04-30T10:22:24.515Z,63.56
2023-04-30T10:23:23.971Z,63.56
2023-04-30T10:24:23.938Z,63.67
2023-04-30T10:25:24.016Z,63.36
2023-04-30T10:26:23.905Z,62.85
2023-04-30T10:27:23.979Z,63.76
2023-04-30T10:28:25.173Z,64.17
2023-04-30T10:29:23.982Z,63.56
2023-04-30T10:30:24.275Z,63.76
2023-04-30T10:31:24.437Z,64.37
2023-04-30T10:32:23.998Z,62.65
2023-04-30T10:33:23.864Z,62.96
2023-04-30T10:34:23.806Z,64.07
2023-04-30T10:35:23.889Z,65.38
2023-04-30T10:36:23.845Z,64.58
2023-04-30T10:37:23.829Z,65.25
2023-04-30T10:38:23.770Z,65.35
2023-04-30T10:39:23.796Z,64.44
2023-04-30T10:40:23.748Z,64.75
2023-04-30T10:41:23.756Z,64.24
2023-04-30T10:42:23.758Z,62.63
2023-04-30T10:43:23.710Z,63.26
2023-04-30T10:44:25.174Z,63.46
2023-04-30T10:45:23.729Z,63.67
2023-04-30T10:46:23.692Z,63.19
2023-04-30T10:47:23.712Z,64.07
2023-04-30T10:48:25.132Z,63.76
2023-04-30T10:49:23.636Z,64.07
2023-04-30T10:50:23.921Z,64.37
2023-04-30T10:51:24.289Z,64.27
2023-04-30T10:52:23.644Z,64.84
2023-04-30T10:53:23.628Z,64.75
2023-04-30T10:54:23.604Z,64.34
2023-04-30T10:55:23.999Z,63.33
2023-04-30T10:56:23.622Z,63.50
2023-04-30T10:57:23.598Z,62.63
2023-04-30T10:58:23.660Z,61.82
2023-04-30T10:59:23.572Z,60.10
2023-04-30T11:00:23.553Z,61.82
2023-04-30T11:01:23.518Z,61.01
2023-04-30T11:02:23.599Z,61.65
2023-04-30T11:03:23.512Z,61.35
2023-04-30T11:04:24.970Z,61.65
2023-04-30T11:05:24.452Z,61.85
2023-04-30T11:06:23.567Z,62.35
2023-04-30T11:07:24.316Z,61.24
2023-04-30T11:08:23.452Z,61.14
2023-04-30T11:09:23.915Z,61.55
2023-04-30T11:10:23.428Z,61.75
2023-04-30T11:11:23.430Z,61.65
2023-04-30T11:12:23.421Z,62.15
2023-04-30T11:13:23.386Z,61.14
2023-04-30T11:14:24.347Z,62.05
2023-04-30T11:15:24.510Z,61.68
2023-04-30T11:16:24.442Z,61.57
2023-04-30T11:17:24.357Z,62.28
2023-04-30T11:18:24.483Z,62.79
2023-04-30T11:19:24.798Z,63.06
2023-04-30T11:20:23.445Z,63.46
2023-04-30T11:21:23.324Z,63.56
2023-04-30T11:22:23.280Z,63.46
2023-04-30T11:23:32.176Z,61.82
2023-04-30T11:24:24.274Z,60.71
2023-04-30T11:25:23.254Z,61.21
2023-04-30T11:26:23.267Z,61.52
2023-04-30T11:27:24.041Z,61.69
2023-04-30T11:28:23.217Z,61.29
2023-04-30T11:29:23.213Z,59.67
2023-04-30T11:30:23.217Z,58.97
2023-04-30T11:31:23.316Z,59.07
2023-04-30T11:32:23.257Z,58.56
2023-04-30T11:33:23.190Z,59.57
2023-04-30T11:34:23.318Z,59.37
2023-04-30T11:35:23.137Z,58.97
2023-04-30T11:36:23.237Z,58.36
2023-04-30T11:37:23.210Z,59.17
2023-04-30T11:38:23.182Z,58.16
2023-04-30T11:39:23.148Z,58.87
2023-04-30T11:40:23.128Z,59.97
2023-04-30T11:41:23.298Z,60.25
2023-04-30T11:42:23.082Z,59.14
2023-04-30T11:43:23.075Z,58.94
2023-04-30T11:44:23.086Z,58.84
2023-04-30T11:45:23.057Z,59.04
2023-04-30T11:46:23.129Z,59.55
2023-04-30T11:47:23.068Z,58.11
2023-04-30T11:48:23.169Z,57.40
2023-04-30T11:49:22.983Z,57.90
2023-04-30T11:50:25.025Z,58.21
2023-04-30T11:51:22.987Z,58.11
2023-04-30T11:52:24.504Z,59.22
2023-04-30T11:53:23.302Z,58.88
2023-04-30T11:54:22.953Z,58.88
2023-04-30T11:55:22.924Z,58.58
2023-04-30T11:56:22.932Z,58.28
2023-04-30T11:57:23.882Z,58.38
2023-04-30T11:58:24.366Z,57.48
2023-04-30T11:59:23.719Z,57.24
2023-04-30T12:00:23.006Z,57.04
2023-04-30T12:01:22.860Z,55.74
2023-04-30T12:02:23.044Z,55.63
2023-04-30T12:03:22.902Z,55.96
2023-04-30T12:04:22.930Z,56.27
2023-04-30T12:05:23.322Z,55.66
2023-04-30T12:06:22.859Z,56.47
2023-04-30T12:07:22.818Z,56.49
2023-04-30T12:08:22.915Z,56.29
2023-04-30T12:09:22.768Z,57.60
2023-04-30T12:10:22.766Z,55.99
2023-04-30T12:11:22.784Z,55.31
2023-04-30T12:12:22.760Z,55.79
2023-04-30T12:13:22.739Z,56.09
2023-04-30T12:14:22.726Z,55.19
2023-04-30T12:15:22.701Z,55.39
2023-04-30T12:16:24.175Z,55.29
2023-04-30T12:17:22.955Z,56.20
2023-04-30T12:18:24.150Z,56.47
2023-04-30T12:19:22.684Z,56.57
2023-04-30T12:20:22.669Z,56.34
2023-04-30T12:21:24.122Z,56.14
2023-04-30T12:22:22.640Z,55.13
2023-04-30T12:23:22.664Z,54.03
2023-04-30T12:24:23.467Z,53.32
2023-04-30T12:25:22.631Z,53.32
2023-04-30T12:26:22.639Z,53.92
2023-04-30T12:27:23.538Z,53.83
2023-04-30T12:28:22.605Z,53.90
2023-04-30T12:29:22.672Z,53.47
2023-04-30T12:30:22.533Z,51.74
2023-04-30T12:31:22.542Z,52.22
2023-04-30T12:32:22.853Z,52.69
2023-04-30T12:33:22.620Z,51.64
2023-04-30T12:34:22.497Z,50.81
2023-04-30T12:35:22.480Z,50.49
2023-04-30T12:36:22.486Z,49.87
2023-04-30T12:37:22.494Z,49.44
2023-04-30T12:38:23.918Z,48.61
2023-04-30T12:39:22.436Z,48.32
2023-04-30T12:40:22.451Z,48.79
2023-04-30T12:41:22.453Z,48.27
2023-04-30T12:42:22.418Z,48.14
2023-04-30T12:43:22.401Z,47.25
2023-04-30T12:44:22.422Z,46.53
2023-04-30T12:45:22.378Z,46.70
2023-04-30T12:46:22.429Z,47.38
2023-04-30T12:47:22.441Z,47.45
2023-04-30T12:48:22.360Z,45.56
2023-04-30T12:49:22.406Z,45.24
2023-04-30T12:50:22.326Z,45.64
2023-04-30T12:51:22.342Z,45.32
2023-04-30T12:52:22.312Z,45.00